メインページ
METAR-TAF:

METAR-TAF

空港 :

メヘラーバード国際空港

テヘラン, イラン

緯度: 35-41N, 経度: 051-21E, 海抜: 1204m

現時点の気象観測

当レポートは18分前の15:30(UTC)に作成
無風
気温 37°C
湿度 9%
気圧 1011 hPa
視程10km以上
1,500メートル以下は雲なし、積乱雲なし

METAR: OIII 251530Z 00000KT CAVOK 37/M01 Q1011 A2986

時間: 20:18 (15:48 UTC)

予報

当レポートは4時間33分前の11:15(UTC)に作成
予報は25日の 12時(UTC)から 26日の 18時(UTC)まで有効
東/北東の風 6kt
視程: 8000m
高度4000ftの雲はほとんどない
25日の 12時(UTC)から 25日の 15時(UTC)まで一時的に
の風 16kt
26日の 06時(UTC)から 26日の 15時(UTC)まで一時的に
南/南東の風 16kt

TAF: OIII 251115Z 2512/2618 07003MPS 8000 FEW040 TEMPO 2512/2515 18008MPS TEMPO 2606/2615 16008MPS

4,000以上の空港の気象観測と天気予報(METAR報とTAF報)

利用可能な観測所は地図上に黄色い丸と赤い丸で示す。

丸の上にカーソルを重ねると観測所名を参照できる。

次にクリックすると気象観測と天気予報を参照できる。

マップの切り替え:黒色「×」印の緑ボタンをクリックして拡大、「-」印の緑ボタンをクリックして縮小、緑色の三角印をクリックして隣りの地図に切り替え


METAR-TAF: